sensor_id;sensor_type;location;lat;lon;timestamp;P1;durP1;ratioP1;P2;durP2;ratioP2
16282;SDS011;8249;48.708;9.030;2023-04-25T00:02:00;5.80;;;5.70;;
16282;SDS011;8249;48.708;9.030;2023-04-25T00:04:28;5.90;;;5.70;;
16282;SDS011;8249;48.708;9.030;2023-04-25T00:06:58;5.53;;;5.43;;
16282;SDS011;8249;48.708;9.030;2023-04-25T00:09:28;6.23;;;6.03;;
16282;SDS011;8249;48.708;9.030;2023-04-25T00:11:55;6.93;;;6.63;;
16282;SDS011;8249;48.708;9.030;2023-04-25T00:14:22;5.67;;;5.57;;
16282;SDS011;8249;48.708;9.030;2023-04-25T00:16:49;5.80;;;5.70;;
16282;SDS011;8249;48.708;9.030;2023-04-25T00:19:16;7.10;;;6.80;;
16282;SDS011;8249;48.708;9.030;2023-04-25T00:21:43;5.87;;;5.70;;
16282;SDS011;8249;48.708;9.030;2023-04-25T00:24:11;6.10;;;5.73;;
16282;SDS011;8249;48.708;9.030;2023-04-25T00:26:40;6.40;;;6.20;;
16282;SDS011;8249;48.708;9.030;2023-04-25T00:29:07;6.03;;;5.83;;
16282;SDS011;8249;48.708;9.030;2023-04-25T00:31:33;6.07;;;5.90;;
16282;SDS011;8249;48.708;9.030;2023-04-25T00:34:00;6.43;;;6.23;;
16282;SDS011;8249;48.708;9.030;2023-04-25T00:36:27;6.63;;;5.63;;
16282;SDS011;8249;48.708;9.030;2023-04-25T00:38:55;6.93;;;6.63;;
16282;SDS011;8249;48.708;9.030;2023-04-25T00:41:22;6.07;;;5.87;;
16282;SDS011;8249;48.708;9.030;2023-04-25T00:43:51;6.00;;;5.80;;
16282;SDS011;8249;48.708;9.030;2023-04-25T00:46:19;5.93;;;5.73;;
16282;SDS011;8249;48.708;9.030;2023-04-25T00:48:46;6.13;;;5.97;;
16282;SDS011;8249;48.708;9.030;2023-04-25T00:51:14;6.27;;;6.07;;
16282;SDS011;8249;48.708;9.030;2023-04-25T00:53:45;6.17;;;5.87;;
16282;SDS011;8249;48.708;9.030;2023-04-25T00:56:12;6.23;;;6.03;;
16282;SDS011;8249;48.708;9.030;2023-04-25T00:58:40;6.40;;;6.20;;
16282;SDS011;8249;48.708;9.030;2023-04-25T01:01:09;6.10;;;5.90;;
16282;SDS011;8249;48.708;9.030;2023-04-25T01:03:38;6.30;;;6.10;;
16282;SDS011;8249;48.708;9.030;2023-04-25T01:06:07;6.07;;;5.87;;
16282;SDS011;8249;48.708;9.030;2023-04-25T01:08:35;6.70;;;6.47;;
16282;SDS011;8249;48.708;9.030;2023-04-25T01:11:03;6.40;;;6.20;;
16282;SDS011;8249;48.708;9.030;2023-04-25T01:13:31;6.23;;;6.03;;
16282;SDS011;8249;48.708;9.030;2023-04-25T01:15:58;6.60;;;6.30;;
16282;SDS011;8249;48.708;9.030;2023-04-25T01:18:27;7.20;;;6.90;;
16282;SDS011;8249;48.708;9.030;2023-04-25T01:20:54;6.13;;;5.93;;
16282;SDS011;8249;48.708;9.030;2023-04-25T01:23:23;5.97;;;5.77;;
16282;SDS011;8249;48.708;9.030;2023-04-25T01:25:50;6.70;;;6.50;;
16282;SDS011;8249;48.708;9.030;2023-04-25T01:28:17;6.73;;;6.43;;
16282;SDS011;8249;48.708;9.030;2023-04-25T01:30:45;6.53;;;6.33;;
16282;SDS011;8249;48.708;9.030;2023-04-25T01:33:13;6.40;;;6.20;;
16282;SDS011;8249;48.708;9.030;2023-04-25T01:35:41;6.83;;;6.57;;
16282;SDS011;8249;48.708;9.030;2023-04-25T01:38:08;6.53;;;6.33;;
16282;SDS011;8249;48.708;9.030;2023-04-25T01:40:40;6.63;;;6.43;;
16282;SDS011;8249;48.708;9.030;2023-04-25T01:43:07;6.63;;;6.43;;
16282;SDS011;8249;48.708;9.030;2023-04-25T01:45:36;6.13;;;5.93;;
16282;SDS011;8249;48.708;9.030;2023-04-25T01:48:05;6.00;;;5.90;;
16282;SDS011;8249;48.708;9.030;2023-04-25T01:50:32;7.00;;;6.80;;
16282;SDS011;8249;48.708;9.030;2023-04-25T01:52:59;6.03;;;5.87;;
16282;SDS011;8249;48.708;9.030;2023-04-25T01:55:27;6.30;;;6.10;;
16282;SDS011;8249;48.708;9.030;2023-04-25T01:58:03;6.67;;;6.47;;
16282;SDS011;8249;48.708;9.030;2023-04-25T02:00:52;6.40;;;6.20;;
16282;SDS011;8249;48.708;9.030;2023-04-25T02:03:19;6.63;;;6.43;;
16282;SDS011;8249;48.708;9.030;2023-04-25T02:05:46;5.93;;;5.80;;
16282;SDS011;8249;48.708;9.030;2023-04-25T02:08:14;6.63;;;6.33;;
16282;SDS011;8249;48.708;9.030;2023-04-25T02:10:42;7.17;;;6.97;;
16282;SDS011;8249;48.708;9.030;2023-04-25T02:13:16;6.93;;;6.73;;
16282;SDS011;8249;48.708;9.030;2023-04-25T02:16:06;6.50;;;6.30;;
16282;SDS011;8249;48.708;9.030;2023-04-25T02:18:36;6.90;;;6.70;;
16282;SDS011;8249;48.708;9.030;2023-04-25T02:21:05;6.83;;;6.63;;
16282;SDS011;8249;48.708;9.030;2023-04-25T02:23:32;5.77;;;5.63;;
16282;SDS011;8249;48.708;9.030;2023-04-25T02:25:59;6.97;;;6.77;;
16282;SDS011;8249;48.708;9.030;2023-04-25T02:28:27;6.10;;;5.90;;
16282;SDS011;8249;48.708;9.030;2023-04-25T02:30:55;6.93;;;6.67;;
16282;SDS011;8249;48.708;9.030;2023-04-25T02:33:23;6.37;;;6.17;;
16282;SDS011;8249;48.708;9.030;2023-04-25T02:35:50;6.07;;;5.87;;
16282;SDS011;8249;48.708;9.030;2023-04-25T02:38:20;5.97;;;5.77;;
16282;SDS011;8249;48.708;9.030;2023-04-25T02:40:47;6.40;;;6.20;;
16282;SDS011;8249;48.708;9.030;2023-04-25T02:43:14;6.57;;;6.37;;
16282;SDS011;8249;48.708;9.030;2023-04-25T02:45:43;5.90;;;5.70;;
16282;SDS011;8249;48.708;9.030;2023-04-25T02:48:11;6.67;;;6.43;;
16282;SDS011;8249;48.708;9.030;2023-04-25T02:50:37;6.43;;;6.23;;
16282;SDS011;8249;48.708;9.030;2023-04-25T02:53:04;6.20;;;6.00;;
16282;SDS011;8249;48.708;9.030;2023-04-25T02:55:37;6.07;;;5.90;;
16282;SDS011;8249;48.708;9.030;2023-04-25T02:58:04;7.00;;;6.60;;
16282;SDS011;8249;48.708;9.030;2023-04-25T03:00:46;6.73;;;6.53;;
16282;SDS011;8249;48.708;9.030;2023-04-25T03:03:14;6.63;;;6.43;;
16282;SDS011;8249;48.708;9.030;2023-04-25T03:05:43;6.97;;;6.77;;
16282;SDS011;8249;48.708;9.030;2023-04-25T03:08:10;6.40;;;6.20;;
16282;SDS011;8249;48.708;9.030;2023-04-25T03:10:38;5.60;;;5.50;;
16282;SDS011;8249;48.708;9.030;2023-04-25T03:13:08;6.27;;;6.07;;
16282;SDS011;8249;48.708;9.030;2023-04-25T03:15:35;6.10;;;5.90;;
16282;SDS011;8249;48.708;9.030;2023-04-25T03:18:04;6.53;;;6.33;;
16282;SDS011;8249;48.708;9.030;2023-04-25T03:20:31;6.93;;;6.73;;
16282;SDS011;8249;48.708;9.030;2023-04-25T03:22:58;6.40;;;6.10;;
16282;SDS011;8249;48.708;9.030;2023-04-25T03:25:26;6.60;;;6.40;;
16282;SDS011;8249;48.708;9.030;2023-04-25T03:27:53;6.33;;;6.13;;
16282;SDS011;8249;48.708;9.030;2023-04-25T03:30:21;5.73;;;5.63;;
16282;SDS011;8249;48.708;9.030;2023-04-25T03:32:48;6.63;;;6.37;;
16282;SDS011;8249;48.708;9.030;2023-04-25T03:35:17;6.70;;;6.40;;
16282;SDS011;8249;48.708;9.030;2023-04-25T03:37:45;6.60;;;6.40;;
16282;SDS011;8249;48.708;9.030;2023-04-25T03:40:16;6.77;;;6.57;;
16282;SDS011;8249;48.708;9.030;2023-04-25T03:43:07;6.30;;;6.10;;
16282;SDS011;8249;48.708;9.030;2023-04-25T03:45:35;6.40;;;6.20;;
16282;SDS011;8249;48.708;9.030;2023-04-25T03:48:02;6.10;;;5.90;;
16282;SDS011;8249;48.708;9.030;2023-04-25T03:50:31;6.87;;;6.67;;
16282;SDS011;8249;48.708;9.030;2023-04-25T03:52:58;6.70;;;6.50;;
16282;SDS011;8249;48.708;9.030;2023-04-25T03:55:28;6.80;;;6.50;;
16282;SDS011;8249;48.708;9.030;2023-04-25T03:57:56;7.17;;;6.87;;
16282;SDS011;8249;48.708;9.030;2023-04-25T04:00:24;6.83;;;6.63;;
16282;SDS011;8249;48.708;9.030;2023-04-25T04:02:51;7.13;;;6.83;;
16282;SDS011;8249;48.708;9.030;2023-04-25T04:05:18;6.63;;;6.40;;
16282;SDS011;8249;48.708;9.030;2023-04-25T04:07:53;6.27;;;6.07;;
16282;SDS011;8249;48.708;9.030;2023-04-25T04:10:20;6.60;;;6.23;;
16282;SDS011;8249;48.708;9.030;2023-04-25T04:12:47;6.07;;;5.70;;
16282;SDS011;8249;48.708;9.030;2023-04-25T04:15:16;6.30;;;6.10;;
16282;SDS011;8249;48.708;9.030;2023-04-25T04:17:44;8.70;;;6.23;;
16282;SDS011;8249;48.708;9.030;2023-04-25T04:20:12;6.77;;;6.33;;
16282;SDS011;8249;48.708;9.030;2023-04-25T04:22:39;6.20;;;6.00;;
16282;SDS011;8249;48.708;9.030;2023-04-25T04:25:11;5.73;;;5.63;;
16282;SDS011;8249;48.708;9.030;2023-04-25T04:27:56;7.00;;;6.70;;
16282;SDS011;8249;48.708;9.030;2023-04-25T04:30:33;7.00;;;6.63;;
16282;SDS011;8249;48.708;9.030;2023-04-25T04:33:05;6.40;;;6.20;;
16282;SDS011;8249;48.708;9.030;2023-04-25T04:35:32;7.57;;;7.27;;
16282;SDS011;8249;48.708;9.030;2023-04-25T04:37:59;6.70;;;6.40;;
16282;SDS011;8249;48.708;9.030;2023-04-25T04:40:32;8.30;;;7.57;;
16282;SDS011;8249;48.708;9.030;2023-04-25T04:43:22;6.40;;;6.20;;
16282;SDS011;8249;48.708;9.030;2023-04-25T04:46:09;6.30;;;6.10;;
16282;SDS011;8249;48.708;9.030;2023-04-25T04:48:49;7.07;;;6.77;;
16282;SDS011;8249;48.708;9.030;2023-04-25T04:51:52;6.43;;;6.23;;
16282;SDS011;8249;48.708;9.030;2023-04-25T04:54:36;6.97;;;6.77;;
16282;SDS011;8249;48.708;9.030;2023-04-25T04:57:13;6.60;;;6.37;;
16282;SDS011;8249;48.708;9.030;2023-04-25T04:59:56;6.37;;;6.17;;
16282;SDS011;8249;48.708;9.030;2023-04-25T05:03:02;6.60;;;6.00;;
16282;SDS011;8249;48.708;9.030;2023-04-25T05:05:56;6.90;;;6.70;;
16282;SDS011;8249;48.708;9.030;2023-04-25T05:08:36;5.97;;;5.77;;
16282;SDS011;8249;48.708;9.030;2023-04-25T05:11:22;6.60;;;6.30;;
16282;SDS011;8249;48.708;9.030;2023-04-25T05:14:11;7.23;;;6.93;;
16282;SDS011;8249;48.708;9.030;2023-04-25T05:16:44;6.87;;;6.67;;
16282;SDS011;8249;48.708;9.030;2023-04-25T05:19:30;6.30;;;6.10;;
16282;SDS011;8249;48.708;9.030;2023-04-25T05:22:13;5.57;;;5.37;;
16282;SDS011;8249;48.708;9.030;2023-04-25T05:24:54;6.83;;;6.43;;
16282;SDS011;8249;48.708;9.030;2023-04-25T05:27:39;5.80;;;5.70;;
16282;SDS011;8249;48.708;9.030;2023-04-25T05:30:28;6.37;;;6.17;;
16282;SDS011;8249;48.708;9.030;2023-04-25T05:33:05;7.37;;;7.17;;
16282;SDS011;8249;48.708;9.030;2023-04-25T05:35:32;6.27;;;6.07;;
16282;SDS011;8249;48.708;9.030;2023-04-25T05:37:59;6.53;;;6.33;;
16282;SDS011;8249;48.708;9.030;2023-04-25T05:40:49;6.23;;;6.03;;
16282;SDS011;8249;48.708;9.030;2023-04-25T05:43:51;6.50;;;6.20;;
16282;SDS011;8249;48.708;9.030;2023-04-25T05:46:38;5.93;;;5.73;;
16282;SDS011;8249;48.708;9.030;2023-04-25T05:49:14;6.23;;;5.93;;
16282;SDS011;8249;48.708;9.030;2023-04-25T05:52:02;6.33;;;6.13;;
16282;SDS011;8249;48.708;9.030;2023-04-25T05:54:46;7.37;;;7.13;;
16282;SDS011;8249;48.708;9.030;2023-04-25T05:57:18;6.60;;;6.40;;
16282;SDS011;8249;48.708;9.030;2023-04-25T05:59:46;6.00;;;5.80;;
16282;SDS011;8249;48.708;9.030;2023-04-25T06:02:15;6.00;;;5.80;;
16282;SDS011;8249;48.708;9.030;2023-04-25T06:04:42;6.73;;;6.47;;
16282;SDS011;8249;48.708;9.030;2023-04-25T06:07:09;6.87;;;6.57;;
16282;SDS011;8249;48.708;9.030;2023-04-25T06:09:36;6.10;;;5.87;;
16282;SDS011;8249;48.708;9.030;2023-04-25T06:12:04;6.73;;;6.43;;
16282;SDS011;8249;48.708;9.030;2023-04-25T06:14:32;6.67;;;6.37;;
16282;SDS011;8249;48.708;9.030;2023-04-25T06:16:59;6.63;;;6.43;;
16282;SDS011;8249;48.708;9.030;2023-04-25T06:19:32;6.40;;;6.17;;
16282;SDS011;8249;48.708;9.030;2023-04-25T06:22:00;6.33;;;6.13;;
16282;SDS011;8249;48.708;9.030;2023-04-25T06:24:27;6.70;;;6.47;;
16282;SDS011;8249;48.708;9.030;2023-04-25T06:26:54;8.83;;;8.43;;
16282;SDS011;8249;48.708;9.030;2023-04-25T06:29:21;7.17;;;6.93;;
16282;SDS011;8249;48.708;9.030;2023-04-25T06:31:48;6.63;;;6.43;;
16282;SDS011;8249;48.708;9.030;2023-04-25T06:34:16;5.93;;;5.73;;
16282;SDS011;8249;48.708;9.030;2023-04-25T06:36:44;8.30;;;7.80;;
16282;SDS011;8249;48.708;9.030;2023-04-25T06:39:14;7.00;;;6.80;;
16282;SDS011;8249;48.708;9.030;2023-04-25T06:41:41;6.53;;;6.33;;
16282;SDS011;8249;48.708;9.030;2023-04-25T06:44:28;6.77;;;6.57;;
16282;SDS011;8249;48.708;9.030;2023-04-25T06:46:56;7.03;;;6.83;;
16282;SDS011;8249;48.708;9.030;2023-04-25T06:49:23;6.87;;;6.67;;
16282;SDS011;8249;48.708;9.030;2023-04-25T06:51:51;6.50;;;6.30;;
16282;SDS011;8249;48.708;9.030;2023-04-25T06:54:18;6.20;;;6.00;;
16282;SDS011;8249;48.708;9.030;2023-04-25T06:56:55;6.47;;;6.27;;
16282;SDS011;8249;48.708;9.030;2023-04-25T06:59:22;6.27;;;6.07;;
16282;SDS011;8249;48.708;9.030;2023-04-25T07:01:51;7.03;;;6.80;;
16282;SDS011;8249;48.708;9.030;2023-04-25T07:04:20;6.77;;;6.57;;
16282;SDS011;8249;48.708;9.030;2023-04-25T07:06:52;7.10;;;6.90;;
16282;SDS011;8249;48.708;9.030;2023-04-25T07:09:26;6.50;;;6.30;;
16282;SDS011;8249;48.708;9.030;2023-04-25T07:11:54;6.23;;;6.03;;
16282;SDS011;8249;48.708;9.030;2023-04-25T07:14:21;8.03;;;7.63;;
16282;SDS011;8249;48.708;9.030;2023-04-25T07:16:49;7.10;;;6.80;;
16282;SDS011;8249;48.708;9.030;2023-04-25T07:19:16;6.50;;;6.30;;
16282;SDS011;8249;48.708;9.030;2023-04-25T07:21:43;7.47;;;7.07;;
16282;SDS011;8249;48.708;9.030;2023-04-25T07:24:12;6.30;;;6.10;;
16282;SDS011;8249;48.708;9.030;2023-04-25T07:26:43;6.37;;;6.17;;
16282;SDS011;8249;48.708;9.030;2023-04-25T07:29:20;6.43;;;6.23;;
16282;SDS011;8249;48.708;9.030;2023-04-25T07:31:47;7.43;;;7.00;;
16282;SDS011;8249;48.708;9.030;2023-04-25T07:34:14;6.07;;;5.93;;
16282;SDS011;8249;48.708;9.030;2023-04-25T07:36:41;7.20;;;6.90;;
16282;SDS011;8249;48.708;9.030;2023-04-25T07:39:09;8.00;;;7.70;;
16282;SDS011;8249;48.708;9.030;2023-04-25T07:41:38;6.90;;;6.70;;
16282;SDS011;8249;48.708;9.030;2023-04-25T07:44:07;6.77;;;6.43;;
16282;SDS011;8249;48.708;9.030;2023-04-25T07:46:34;6.87;;;6.67;;
16282;SDS011;8249;48.708;9.030;2023-04-25T07:49:02;5.70;;;5.57;;
16282;SDS011;8249;48.708;9.030;2023-04-25T07:51:29;7.27;;;6.97;;
16282;SDS011;8249;48.708;9.030;2023-04-25T07:54:00;6.77;;;6.47;;
16282;SDS011;8249;48.708;9.030;2023-04-25T07:56:28;5.93;;;5.70;;
16282;SDS011;8249;48.708;9.030;2023-04-25T07:58:56;6.00;;;5.80;;
16282;SDS011;8249;48.708;9.030;2023-04-25T08:01:23;6.17;;;5.97;;
16282;SDS011;8249;48.708;9.030;2023-04-25T08:03:57;5.90;;;5.60;;
16282;SDS011;8249;48.708;9.030;2023-04-25T08:06:33;5.80;;;5.60;;
16282;SDS011;8249;48.708;9.030;2023-04-25T08:09:12;7.20;;;6.90;;
16282;SDS011;8249;48.708;9.030;2023-04-25T08:11:41;6.43;;;6.23;;
16282;SDS011;8249;48.708;9.030;2023-04-25T08:14:12;6.40;;;6.20;;
16282;SDS011;8249;48.708;9.030;2023-04-25T08:16:41;6.20;;;6.00;;
16282;SDS011;8249;48.708;9.030;2023-04-25T08:19:08;6.00;;;5.80;;
16282;SDS011;8249;48.708;9.030;2023-04-25T08:21:36;5.93;;;5.73;;
16282;SDS011;8249;48.708;9.030;2023-04-25T08:24:07;5.83;;;5.70;;
16282;SDS011;8249;48.708;9.030;2023-04-25T08:26:37;5.97;;;5.77;;
16282;SDS011;8249;48.708;9.030;2023-04-25T08:29:06;6.17;;;5.97;;
16282;SDS011;8249;48.708;9.030;2023-04-25T08:31:37;6.03;;;5.83;;
16282;SDS011;8249;48.708;9.030;2023-04-25T08:34:05;6.23;;;6.03;;
16282;SDS011;8249;48.708;9.030;2023-04-25T08:36:36;6.17;;;5.97;;
16282;SDS011;8249;48.708;9.030;2023-04-25T08:39:04;5.70;;;5.50;;
16282;SDS011;8249;48.708;9.030;2023-04-25T08:41:38;6.20;;;6.00;;
16282;SDS011;8249;48.708;9.030;2023-04-25T08:44:08;6.70;;;6.50;;
16282;SDS011;8249;48.708;9.030;2023-04-25T08:46:38;7.20;;;7.00;;
16282;SDS011;8249;48.708;9.030;2023-04-25T08:49:14;6.03;;;5.83;;
16282;SDS011;8249;48.708;9.030;2023-04-25T08:51:44;6.53;;;6.33;;
16282;SDS011;8249;48.708;9.030;2023-04-25T08:54:13;6.30;;;6.13;;
16282;SDS011;8249;48.708;9.030;2023-04-25T08:56:41;6.07;;;5.77;;
16282;SDS011;8249;48.708;9.030;2023-04-25T08:59:12;6.07;;;5.87;;
16282;SDS011;8249;48.708;9.030;2023-04-25T09:01:42;6.37;;;6.17;;
16282;SDS011;8249;48.708;9.030;2023-04-25T09:04:10;6.07;;;5.77;;
16282;SDS011;8249;48.708;9.030;2023-04-25T09:06:38;6.47;;;6.27;;
16282;SDS011;8249;48.708;9.030;2023-04-25T09:09:07;6.13;;;5.93;;
16282;SDS011;8249;48.708;9.030;2023-04-25T09:11:35;6.10;;;5.90;;
16282;SDS011;8249;48.708;9.030;2023-04-25T09:14:10;6.23;;;6.00;;
16282;SDS011;8249;48.708;9.030;2023-04-25T09:17:06;7.40;;;7.00;;
16282;SDS011;8249;48.708;9.030;2023-04-25T09:19:36;7.03;;;6.63;;
16282;SDS011;8249;48.708;9.030;2023-04-25T09:22:08;6.33;;;6.13;;
16282;SDS011;8249;48.708;9.030;2023-04-25T09:24:36;6.10;;;5.90;;
16282;SDS011;8249;48.708;9.030;2023-04-25T09:27:05;6.30;;;6.10;;
16282;SDS011;8249;48.708;9.030;2023-04-25T09:29:33;6.53;;;6.23;;
16282;SDS011;8249;48.708;9.030;2023-04-25T09:32:17;7.33;;;7.13;;
16282;SDS011;8249;48.708;9.030;2023-04-25T09:34:47;7.43;;;7.23;;
16282;SDS011;8249;48.708;9.030;2023-04-25T09:37:17;6.67;;;6.47;;
16282;SDS011;8249;48.708;9.030;2023-04-25T09:40:09;6.47;;;6.27;;
16282;SDS011;8249;48.708;9.030;2023-04-25T09:42:50;6.17;;;5.97;;
16282;SDS011;8249;48.708;9.030;2023-04-25T09:45:17;6.17;;;5.97;;
16282;SDS011;8249;48.708;9.030;2023-04-25T09:47:46;6.97;;;6.77;;
16282;SDS011;8249;48.708;9.030;2023-04-25T09:50:16;6.20;;;6.00;;
16282;SDS011;8249;48.708;9.030;2023-04-25T09:52:51;6.27;;;6.07;;
16282;SDS011;8249;48.708;9.030;2023-04-25T09:55:33;7.40;;;7.20;;
16282;SDS011;8249;48.708;9.030;2023-04-25T09:58:04;6.33;;;6.13;;
16282;SDS011;8249;48.708;9.030;2023-04-25T10:00:32;6.90;;;6.70;;
16282;SDS011;8249;48.708;9.030;2023-04-25T10:03:15;6.33;;;6.13;;
16282;SDS011;8249;48.708;9.030;2023-04-25T10:06:17;6.83;;;6.63;;
16282;SDS011;8249;48.708;9.030;2023-04-25T10:08:49;7.47;;;7.27;;
16282;SDS011;8249;48.708;9.030;2023-04-25T10:11:20;6.40;;;6.20;;
16282;SDS011;8249;48.708;9.030;2023-04-25T10:13:49;6.17;;;5.97;;
16282;SDS011;8249;48.708;9.030;2023-04-25T10:16:17;8.73;;;5.80;;
16282;SDS011;8249;48.708;9.030;2023-04-25T10:18:46;5.77;;;5.67;;
16282;SDS011;8249;48.708;9.030;2023-04-25T10:21:13;5.83;;;5.73;;
16282;SDS011;8249;48.708;9.030;2023-04-25T10:23:42;6.03;;;5.83;;
16282;SDS011;8249;48.708;9.030;2023-04-25T10:26:10;5.83;;;5.70;;
16282;SDS011;8249;48.708;9.030;2023-04-25T10:31:21;5.70;;;5.60;;
16282;SDS011;8249;48.708;9.030;2023-04-25T10:33:49;6.17;;;6.03;;
16282;SDS011;8249;48.708;9.030;2023-04-25T10:36:17;6.23;;;6.07;;
16282;SDS011;8249;48.708;9.030;2023-04-25T10:38:46;5.60;;;5.40;;
16282;SDS011;8249;48.708;9.030;2023-04-25T10:41:15;6.67;;;6.23;;
16282;SDS011;8249;48.708;9.030;2023-04-25T10:43:45;6.13;;;5.93;;
16282;SDS011;8249;48.708;9.030;2023-04-25T10:46:12;6.03;;;5.83;;
16282;SDS011;8249;48.708;9.030;2023-04-25T10:48:44;5.23;;;5.13;;
16282;SDS011;8249;48.708;9.030;2023-04-25T10:51:20;5.93;;;5.73;;
16282;SDS011;8249;48.708;9.030;2023-04-25T10:53:56;5.63;;;5.43;;
16282;SDS011;8249;48.708;9.030;2023-04-25T10:56:26;5.63;;;5.53;;
16282;SDS011;8249;48.708;9.030;2023-04-25T10:59:02;6.07;;;5.97;;
16282;SDS011;8249;48.708;9.030;2023-04-25T11:01:37;6.07;;;5.97;;
16282;SDS011;8249;48.708;9.030;2023-04-25T11:04:06;6.03;;;5.83;;
16282;SDS011;8249;48.708;9.030;2023-04-25T11:06:48;5.33;;;5.23;;
16282;SDS011;8249;48.708;9.030;2023-04-25T11:09:32;6.63;;;6.43;;
16282;SDS011;8249;48.708;9.030;2023-04-25T11:12:00;6.07;;;5.73;;
16282;SDS011;8249;48.708;9.030;2023-04-25T11:14:27;5.60;;;5.50;;
16282;SDS011;8249;48.708;9.030;2023-04-25T11:16:54;5.30;;;5.20;;
16282;SDS011;8249;48.708;9.030;2023-04-25T11:19:23;5.10;;;5.00;;
16282;SDS011;8249;48.708;9.030;2023-04-25T11:21:52;5.13;;;4.97;;
16282;SDS011;8249;48.708;9.030;2023-04-25T11:24:25;5.13;;;5.03;;
16282;SDS011;8249;48.708;9.030;2023-04-25T11:26:53;5.27;;;5.17;;
16282;SDS011;8249;48.708;9.030;2023-04-25T11:29:21;5.63;;;5.43;;
16282;SDS011;8249;48.708;9.030;2023-04-25T11:31:48;5.10;;;5.00;;
16282;SDS011;8249;48.708;9.030;2023-04-25T11:34:16;5.00;;;4.90;;
16282;SDS011;8249;48.708;9.030;2023-04-25T11:36:45;5.80;;;5.60;;
16282;SDS011;8249;48.708;9.030;2023-04-25T11:39:12;4.70;;;4.60;;
16282;SDS011;8249;48.708;9.030;2023-04-25T11:41:40;5.50;;;5.33;;
16282;SDS011;8249;48.708;9.030;2023-04-25T11:44:07;4.50;;;4.40;;
16282;SDS011;8249;48.708;9.030;2023-04-25T11:46:34;4.87;;;4.67;;
16282;SDS011;8249;48.708;9.030;2023-04-25T11:49:02;4.83;;;4.73;;
16282;SDS011;8249;48.708;9.030;2023-04-25T11:51:29;4.80;;;4.70;;
16282;SDS011;8249;48.708;9.030;2023-04-25T11:53:58;4.40;;;4.30;;
16282;SDS011;8249;48.708;9.030;2023-04-25T11:56:25;5.10;;;4.80;;
16282;SDS011;8249;48.708;9.030;2023-04-25T11:58:56;4.97;;;4.87;;
16282;SDS011;8249;48.708;9.030;2023-04-25T12:01:27;4.70;;;4.60;;
16282;SDS011;8249;48.708;9.030;2023-04-25T12:03:55;4.60;;;4.50;;
16282;SDS011;8249;48.708;9.030;2023-04-25T12:06:25;4.77;;;4.67;;
16282;SDS011;8249;48.708;9.030;2023-04-25T12:09:01;4.80;;;4.70;;
16282;SDS011;8249;48.708;9.030;2023-04-25T12:11:29;4.77;;;4.67;;
16282;SDS011;8249;48.708;9.030;2023-04-25T12:14:01;4.33;;;4.23;;
16282;SDS011;8249;48.708;9.030;2023-04-25T12:16:29;4.03;;;3.93;;
16282;SDS011;8249;48.708;9.030;2023-04-25T12:18:56;4.43;;;4.33;;
16282;SDS011;8249;48.708;9.030;2023-04-25T12:21:27;4.27;;;4.17;;
16282;SDS011;8249;48.708;9.030;2023-04-25T12:23:55;4.73;;;4.63;;
16282;SDS011;8249;48.708;9.030;2023-04-25T12:26:24;4.87;;;4.77;;
16282;SDS011;8249;48.708;9.030;2023-04-25T12:28:51;4.60;;;4.50;;
16282;SDS011;8249;48.708;9.030;2023-04-25T12:31:18;4.40;;;4.30;;
16282;SDS011;8249;48.708;9.030;2023-04-25T12:33:45;4.40;;;4.30;;
16282;SDS011;8249;48.708;9.030;2023-04-25T12:36:12;3.93;;;3.83;;
16282;SDS011;8249;48.708;9.030;2023-04-25T12:38:42;4.73;;;4.63;;
16282;SDS011;8249;48.708;9.030;2023-04-25T12:41:09;4.13;;;4.03;;
16282;SDS011;8249;48.708;9.030;2023-04-25T12:43:37;4.70;;;4.60;;
16282;SDS011;8249;48.708;9.030;2023-04-25T12:46:04;5.13;;;4.93;;
16282;SDS011;8249;48.708;9.030;2023-04-25T12:48:31;5.43;;;5.23;;
16282;SDS011;8249;48.708;9.030;2023-04-25T12:50:58;5.23;;;5.13;;
16282;SDS011;8249;48.708;9.030;2023-04-25T12:53:25;6.17;;;5.80;;
16282;SDS011;8249;48.708;9.030;2023-04-25T12:55:52;5.63;;;5.33;;
16282;SDS011;8249;48.708;9.030;2023-04-25T12:58:19;10.10;;;9.17;;
16282;SDS011;8249;48.708;9.030;2023-04-25T13:00:47;7.30;;;6.73;;
16282;SDS011;8249;48.708;9.030;2023-04-25T13:03:14;5.43;;;5.23;;
16282;SDS011;8249;48.708;9.030;2023-04-25T13:05:41;5.03;;;4.83;;
16282;SDS011;8249;48.708;9.030;2023-04-25T13:08:08;6.47;;;6.17;;
16282;SDS011;8249;48.708;9.030;2023-04-25T13:10:36;5.67;;;5.43;;
16282;SDS011;8249;48.708;9.030;2023-04-25T13:13:04;4.83;;;4.73;;
16282;SDS011;8249;48.708;9.030;2023-04-25T13:15:31;5.97;;;5.77;;
16282;SDS011;8249;48.708;9.030;2023-04-25T13:18:00;5.23;;;5.03;;
16282;SDS011;8249;48.708;9.030;2023-04-25T13:20:27;6.37;;;5.97;;
16282;SDS011;8249;48.708;9.030;2023-04-25T13:22:54;5.57;;;5.33;;
16282;SDS011;8249;48.708;9.030;2023-04-25T13:25:21;5.93;;;5.57;;
16282;SDS011;8249;48.708;9.030;2023-04-25T13:27:48;6.63;;;6.33;;
16282;SDS011;8249;48.708;9.030;2023-04-25T13:30:15;8.20;;;7.67;;
16282;SDS011;8249;48.708;9.030;2023-04-25T13:32:42;5.53;;;5.17;;
16282;SDS011;8249;48.708;9.030;2023-04-25T13:35:11;6.73;;;6.33;;
16282;SDS011;8249;48.708;9.030;2023-04-25T13:37:39;5.30;;;5.07;;
16282;SDS011;8249;48.708;9.030;2023-04-25T13:40:07;5.37;;;5.17;;
16282;SDS011;8249;48.708;9.030;2023-04-25T13:42:36;4.63;;;4.43;;
16282;SDS011;8249;48.708;9.030;2023-04-25T13:45:04;4.87;;;4.67;;
16282;SDS011;8249;48.708;9.030;2023-04-25T13:47:31;5.13;;;4.83;;
16282;SDS011;8249;48.708;9.030;2023-04-25T13:49:58;4.17;;;4.07;;
16282;SDS011;8249;48.708;9.030;2023-04-25T13:52:29;4.00;;;3.90;;
16282;SDS011;8249;48.708;9.030;2023-04-25T13:54:56;5.60;;;5.23;;
16282;SDS011;8249;48.708;9.030;2023-04-25T13:57:23;4.67;;;4.53;;
16282;SDS011;8249;48.708;9.030;2023-04-25T13:59:51;5.00;;;4.80;;
16282;SDS011;8249;48.708;9.030;2023-04-25T14:02:18;4.60;;;4.40;;
16282;SDS011;8249;48.708;9.030;2023-04-25T14:04:45;5.00;;;4.80;;
16282;SDS011;8249;48.708;9.030;2023-04-25T14:07:11;4.97;;;4.77;;
16282;SDS011;8249;48.708;9.030;2023-04-25T14:09:42;5.27;;;4.97;;
16282;SDS011;8249;48.708;9.030;2023-04-25T14:12:09;5.17;;;4.97;;
16282;SDS011;8249;48.708;9.030;2023-04-25T14:14:36;5.13;;;4.93;;
16282;SDS011;8249;48.708;9.030;2023-04-25T14:17:03;4.23;;;4.07;;
16282;SDS011;8249;48.708;9.030;2023-04-25T14:19:31;3.90;;;3.80;;
16282;SDS011;8249;48.708;9.030;2023-04-25T14:21:59;5.63;;;5.13;;
16282;SDS011;8249;48.708;9.030;2023-04-25T14:24:26;4.10;;;3.90;;
16282;SDS011;8249;48.708;9.030;2023-04-25T14:26:54;4.27;;;4.07;;
16282;SDS011;8249;48.708;9.030;2023-04-25T14:29:21;3.20;;;3.10;;
16282;SDS011;8249;48.708;9.030;2023-04-25T14:31:48;4.03;;;3.93;;
16282;SDS011;8249;48.708;9.030;2023-04-25T14:34:15;4.07;;;3.93;;
16282;SDS011;8249;48.708;9.030;2023-04-25T14:36:42;4.13;;;4.03;;
16282;SDS011;8249;48.708;9.030;2023-04-25T14:39:09;4.27;;;4.07;;
16282;SDS011;8249;48.708;9.030;2023-04-25T14:41:37;4.97;;;4.67;;
16282;SDS011;8249;48.708;9.030;2023-04-25T14:44:06;3.77;;;3.60;;
16282;SDS011;8249;48.708;9.030;2023-04-25T14:46:33;4.43;;;4.23;;
16282;SDS011;8249;48.708;9.030;2023-04-25T14:49:00;4.83;;;4.63;;
16282;SDS011;8249;48.708;9.030;2023-04-25T14:51:28;6.90;;;6.27;;
16282;SDS011;8249;48.708;9.030;2023-04-25T14:53:56;3.67;;;3.57;;
16282;SDS011;8249;48.708;9.030;2023-04-25T14:56:23;3.93;;;3.83;;
16282;SDS011;8249;48.708;9.030;2023-04-25T14:58:50;6.97;;;6.47;;
16282;SDS011;8249;48.708;9.030;2023-04-25T15:01:18;10.93;;;9.37;;
16282;SDS011;8249;48.708;9.030;2023-04-25T15:03:46;3.87;;;3.77;;
16282;SDS011;8249;48.708;9.030;2023-04-25T15:06:14;3.50;;;3.40;;
16282;SDS011;8249;48.708;9.030;2023-04-25T15:08:41;4.13;;;3.77;;
16282;SDS011;8249;48.708;9.030;2023-04-25T15:11:08;3.57;;;3.47;;
16282;SDS011;8249;48.708;9.030;2023-04-25T15:13:36;4.37;;;4.17;;
16282;SDS011;8249;48.708;9.030;2023-04-25T15:16:03;3.10;;;3.00;;
16282;SDS011;8249;48.708;9.030;2023-04-25T15:18:33;3.37;;;3.27;;
16282;SDS011;8249;48.708;9.030;2023-04-25T15:21:00;4.33;;;4.10;;
16282;SDS011;8249;48.708;9.030;2023-04-25T15:23:27;3.23;;;3.13;;